Latest Weather Observations for Albury

IDV60801

Issued at 5:52 am EDT Saturday 19 October 2019 (issued every 10 minutes, with the page automatically refreshed every 10 minutes)

About weather observations | Map of weather stations | Latest weather observations for VIC | Other Formats
Station Details ID: 072160 Name: ALBURY AIRPORT AWS Lat: -36.07 Lon: 146.95 Height: 163.5 m
Data from the previous 72 hours. | See also: Recent months at Albury
Date/Time
EDT
Temp
°C
App
Temp
°C
Dew
Point
°C
Rel
Hum
%
Delta-T
°C
Wind Press
QNH
hPa
Press
MSL
hPa
Rain since
9am
mm
Dir  Spd
km/h
Gust
km/h
Spd
kts
Gust
kts
19/05:30am 11.8 9.3 8.1 78 1.8 NW 11 19 6 10 1013.7 1013.5 0.0
19/05:00am 9.4 7.5 6.5 82 1.4 NW 6 9 3 5 1013.7 1013.5 0.0
19/04:30am 10.4 9.6 6.5 77 1.8 CALM 0 0 0 0 1013.5 1013.3 0.0
19/04:00am 11.0 8.9 6.0 71 2.3 W 6 9 3 5 1013.7 1013.5 0.0
19/03:30am 12.1 9.5 6.2 67 2.8 NW 9 13 5 7 1013.8 1013.7 0.0
19/03:00am 12.6 9.2 6.0 64 3.1 WNW 13 15 7 8 1014.0 1013.9 0.0
19/02:30am 13.2 9.7 5.4 59 3.7 WNW 13 19 7 10 1014.2 1014.1 0.0
19/02:00am 13.5 9.8 4.6 55 4.1 WNW 13 19 7 10 1014.2 1014.1 0.0
19/01:30am 14.8 10.3 4.2 49 4.9 W 17 24 9 13 1014.2 1014.1 0.0
19/01:00am 14.8 10.5 3.0 45 5.4 W 15 22 8 12 1014.2 1014.1 0.0
19/12:30am 15.7 11.1 1.8 39 6.2 WNW 15 22 8 12 1013.8 1013.7 0.0
19/12:00am 16.5 10.9 1.0 35 6.8 WNW 20 26 11 14 1013.6 1013.4 0.0
 
Date/Time
EDT
Temp
°C
App
Temp
°C
Dew
Point
°C
Rel
Hum
%
Delta-T
°C
Wind Press
QNH
hPa
Press
MSL
hPa
Rain since
9am
mm
Dir  Spd
km/h
Gust
km/h
Spd
kts
Gust
kts
18/11:30pm 17.9 10.3 -1.9 26 8.3 WNW 28 37 15 20 1013.3 1013.1 0.0
18/11:00pm 16.5 11.4 -1.6 29 7.6 NNW 15 22 8 12 1012.5 1012.3 0.0
18/10:30pm 17.0 11.7 -0.7 30 7.6 NNW 17 22 9 12 1012.3 1012.1 0.0
18/10:00pm 16.3 11.8 -0.4 32 7.1 NNW 13 15 7 8 1012.5 1012.3 0.0
18/09:30pm 16.1 11.6 -0.6 32 7.1 NNW 13 15 7 8 1012.9 1012.7 0.0
18/09:00pm 16.7 12.2 -0.5 31 7.4 N 13 17 7 9 1013.0 1012.8 0.0
18/08:30pm 17.0 12.5 -0.2 31 7.4 N 13 17 7 9 1013.0 1012.8 0.0
18/08:00pm 17.6 13.4 -0.6 29 7.8 N 11 15 6 8 1012.9 1012.7 0.0
18/07:30pm 18.9 14.2 -1.5 25 8.7 NNW 13 19 7 10 1012.7 1012.5 0.0
18/07:00pm 20.2 14.4 -1.6 23 9.4 NNW 19 32 10 17 1012.6 1012.4 0.0
18/06:30pm 21.0 15.0 -1.5 22 9.8 NNW 20 32 11 17 1012.5 1012.3 0.0
18/06:00pm 21.4 15.1 -1.2 22 10.0 NW 22 33 12 18 1012.8 1012.6 0.0
18/05:30pm 21.7 15.0 1.4 26 9.4 NW 26 37 14 20 1013.1 1012.9 0.0
18/05:00pm 21.5 16.3 2.2 28 9.1 WNW 19 26 10 14 1013.7 1013.5 0.0
18/04:30pm 21.1 15.5 1.4 27 9.1 WNW 20 35 11 19 1014.0 1013.9 0.0
18/04:00pm 21.6 16.8 2.8 29 9.0 NW 17 28 9 15 1014.4 1014.3 0.0
18/03:30pm 20.5 15.3 2.3 30 8.5 NW 19 30 10 16 1015.1 1015.0 0.0
18/03:00pm 20.1 15.4 2.9 32 8.1 W 17 30 9 16 1015.8 1015.6 0.0
18/02:30pm 20.1 14.6 2.0 30 8.4 WNW 20 37 11 20 1016.2 1016.0 0.0
18/02:00pm 19.4 15.3 4.4 37 7.2 WNW 15 24 8 13 1016.7 1016.5 0.0
18/01:30pm 19.2 15.3 5.3 40 6.8 NW 15 22 8 12 1017.2 1017.0 0.0
18/01:00pm 17.7 13.1 3.9 40 6.5 NW 17 22 9 12 1017.6 1017.4 0.0
18/12:30pm 17.9 14.4 5.5 44 6.1 NW 13 22 7 12 1018.0 1017.8 0.0
18/12:00pm 16.5 13.4 5.5 48 5.3 N 11 20 6 11 1018.5 1018.3 0.0
18/11:30am 15.9 11.7 5.8 51 4.9 NW 17 24 9 13 1019.1 1019.0 0.0
18/11:00am 15.1 11.4 6.4 56 4.2 NW 15 26 8 14 1019.3 1019.2 0.0
18/10:30am 13.5 11.0 6.4 62 3.4 NW 9 26 5 14 1019.6 1019.5 0.0
18/10:00am 12.9 11.0 6.5 65 3.1 E 6 13 3 7 1019.7 1019.6 0.0
18/09:30am 12.5 10.9 7.8 73 2.3 SE 6 11 3 6 1019.7 1019.6 0.0
18/09:00am 10.9 9.0 6.8 76 2.0 ENE 6 7 3 4 1019.7 1019.6 0.2
18/08:30am 9.0 7.0 6.1 82 1.3 ENE 6 7 3 4 1019.4 1019.3 0.2
18/08:00am 7.9 6.2 5.9 87 0.9 E 4 7 2 4 1019.3 1019.2 0.2
18/07:30am 6.1 3.9 5.2 94 0.4 ENE 6 9 3 5 1019.2 1019.1 0.2
18/07:00am 5.2 2.9 4.8 97 0.2 SE 6 7 3 4 1018.9 1018.7 0.2
18/06:30am 3.6 1.3 2.7 94 0.4 ENE 4 6 2 3 1018.4 1018.2 0.2
18/06:00am 4.1 2.7 3.4 95 0.3 CALM 0 0 0 0 1018.0 1017.8 0.2
18/05:30am 4.5 3.1 3.6 94 0.4 CALM 0 0 0 0 1017.4 1017.2 0.2
18/05:00am 5.0 2.5 4.0 93 0.4 E 6 6 3 3 1017.0 1016.8 0.2
18/04:30am 5.4 2.9 4.5 94 0.4 ENE 7 9 4 5 1017.0 1016.8 0.2
18/04:00am 5.3 3.6 3.8 90 0.6 W 2 7 1 4 1016.8 1016.6 0.2
18/03:30am 6.0 3.7 4.6 91 0.6 W 6 7 3 4 1016.8 1016.6 0.2
18/03:00am 6.3 4.0 4.8 90 0.7 WSW 6 7 3 4 1016.8 1016.6 0.2
18/02:30am 6.9 5.4 4.9 87 0.9 ENE 2 7 1 4 1016.8 1016.6 0.2
18/02:00am 8.0 5.7 5.6 85 1.1 E 7 9 4 5 1016.8 1016.6 0.2
18/01:30am 8.4 6.3 5.7 83 1.2 W 6 7 3 4 1016.9 1016.7 0.2
18/01:00am 8.6 5.5 5.4 80 1.5 NW 11 13 6 7 1017.1 1016.9 0.2
18/12:30am 9.5 5.4 6.0 79 1.6 W 17 19 9 10 1017.2 1017.0 0.2
18/12:00am 9.0 6.1 4.8 75 1.9 WSW 9 13 5 7 1017.3 1017.1 0.2
 
Date/Time
EDT
Temp
°C
App
Temp
°C
Dew
Point
°C
Rel
Hum
%
Delta-T
°C
Wind Press
QNH
hPa
Press
MSL
hPa
Rain since
9am
mm
Dir  Spd
km/h
Gust
km/h
Spd
kts
Gust
kts
17/11:30pm 9.9 7.5 5.3 73 2.1 WSW 7 17 4 9 1017.3 1017.1 0.2
17/11:00pm 9.3 7.4 5.1 75 1.9 W 4 7 2 4 1017.1 1016.9 0.2
17/10:30pm 10.0 9.0 5.8 75 1.9 CALM 0 4 0 2 1017.0 1016.8 0.2
17/10:00pm 10.2 7.7 4.8 69 2.4 SSW 7 11 4 6 1016.6 1016.4 0.2
17/09:30pm 10.7 7.8 4.4 65 2.8 WSW 9 13 5 7 1016.3 1016.1 0.2
17/09:00pm 12.1 8.8 4.8 61 3.4 WSW 11 20 6 11 1015.8 1015.6 0.2
17/08:30pm 12.5 8.8 4.7 59 3.6 WSW 13 20 7 11 1015.1 1015.0 0.2
17/08:00pm 12.6 9.3 4.8 59 3.6 SW 11 15 6 8 1014.7 1014.6 0.2
17/07:30pm 12.9 8.5 4.6 57 3.8 SW 17 22 9 12 1014.4 1014.3 0.2
17/07:00pm 13.8 8.1 3.0 48 4.9 W 22 39 12 21 1013.7 1013.5 0.2
17/06:30pm 14.5 8.0 2.7 45 5.3 WSW 26 43 14 23 1013.2 1013.0 0.2
17/06:00pm 14.4 9.0 2.6 45 5.3 WSW 20 33 11 18 1012.9 1012.7 0.2
17/05:31pm 14.2 6.9 2.5 45 5.2 W 30 48 16 26 1012.5 1012.3 0.2
17/05:30pm 14.3 7.0 2.5 45 5.3 W 30 44 16 24 1012.5 1012.3 0.2
17/05:00pm 13.7 6.0 3.2 49 4.7 WNW 33 56 18 30 1011.8 1011.6 0.2
17/04:50pm 14.9 6.9 0.7 38 6.1 W 32 50 17 27 1011.7 1011.5 0.2
17/04:30pm 15.4 7.3 0.0 35 6.6 W 32 44 17 24 1011.3 1011.1 0.2
17/04:00pm 16.9 8.9 1.8 36 6.8 WNW 33 54 18 29 1011.2 1011.0 0.2
17/03:40pm 15.3 7.2 1.1 38 6.2 WNW 33 52 18 28 1011.2 1011.0 0.2
17/03:30pm 16.3 8.0 2.0 38 6.4 WNW 35 50 19 27 1011.1 1010.9 0.2
17/03:09pm 15.9 8.4 3.7 44 5.7 WNW 32 56 17 30 1011.2 1011.0 0.2
17/03:00pm 16.2 8.9 4.3 45 5.6 W 32 43 17 23 1011.5 1011.3 0.2
17/02:30pm 14.9 7.4 3.7 47 5.2 W 32 43 17 23 1011.6 1011.4 0.2
17/02:00pm 16.1 8.8 4.5 46 5.5 W 32 50 17 27 1011.6 1011.4 0.2
17/01:30pm 14.8 7.4 4.8 51 4.7 WNW 33 52 18 28 1011.7 1011.5 0.2
17/01:28pm 14.7 7.3 4.1 49 4.9 WNW 32 52 17 28 1011.6 1011.4 0.2
17/01:00pm 14.0 7.9 4.6 53 4.4 W 26 37 14 20 1011.8 1011.6 0.2
17/12:30pm 14.9 8.2 5.7 54 4.4 W 30 48 16 26 1011.9 1011.7 0.0
17/12:00pm 11.3 4.6 7.4 77 1.9 W 32 50 17 27 1012.2 1012.0 0.0
17/11:59am 11.3 4.6 7.4 77 1.9 W 32 50 17 27 1012.2 1012.0 0.0
17/11:30am 13.9 6.2 5.3 56 4.1 WNW 35 46 19 25 1011.9 1011.7 0.0
17/11:00am 12.8 5.5 4.5 57 3.8 W 32 44 17 24 1012.0 1011.8 0.0
17/10:37am 13.2 6.3 4.6 56 4.0 W 30 48 16 26 1011.9 1011.7 0.0
17/10:30am 13.0 6.0 5.9 62 3.4 W 32 39 17 21 1011.9 1011.7 0.0
17/10:00am 12.8 5.8 5.9 63 3.3 W 32 43 17 23 1011.8 1011.6 0.0
17/09:43am 12.6 6.1 6.4 66 3.0 W 30 48 16 26 1011.8 1011.6 0.0
17/09:34am 12.2 6.0 6.3 67 2.8 W 28 48 15 26 1011.8 1011.6 0.0
17/09:30am 12.1 6.5 7.2 72 2.4 W 26 35 14 19 1011.7 1011.5 0.0
17/09:13am 11.4 6.2 7.1 75 2.1 W 24 37 13 20 1011.7 1011.5 0.0
17/09:00am 11.1 4.9 6.3 72 2.3 W 28 35 15 19 1011.6 1011.4 6.4
17/08:30am 10.4 3.9 6.7 78 1.8 W 30 39 16 21 1011.0 1010.8 6.4
17/08:00am 10.2 5.6 6.7 79 1.7 W 20 32 11 17 1010.7 1010.5 6.4
17/07:30am 10.3 4.4 7.5 83 1.4 WNW 28 37 15 20 1010.7 1010.5 6.4
17/07:00am 10.8 4.3 8.2 84 1.3 W 32 46 17 25 1009.9 1009.7 6.4
17/06:30am 11.3 7.7 9.9 91 0.7 WNW 19 30 10 16 1009.5 1009.3 6.4
17/06:12am 11.4 9.0 10.1 92 0.7 WNW 13 20 7 11 1009.0 1008.9 6.4
17/06:00am 11.5 10.0 10.7 95 0.4 NW 9 13 5 7 1009.1 1009.0 6.4
17/05:40am 11.5 10.4 10.7 95 0.4 NW 7 9 4 5 1008.9 1008.8 6.4
17/05:30am 11.7 10.9 10.9 95 0.4 NW 6 7 3 4 1008.8 1008.7 6.4
17/05:05am 11.8 10.9 11.2 96 0.3 WNW 7 15 4 8 1008.6 1008.5 6.4
17/05:00am 11.9 10.2 11.3 96 0.3 W 11 19 6 10 1008.5 1008.3 6.4
17/04:30am 12.2 11.2 12.2 100 0.0 N 9 11 5 6 1008.8 1008.7 6.4
17/04:00am 11.6 12.1 11.6 100 0.0 CALM 0 0 0 0 1009.0 1008.9 6.4
17/03:30am 11.6 11.0 11.6 100 0.0 N 6 11 3 6 1009.4 1009.2 6.4
17/03:14am 11.0 11.3 11.0 100 0.0 CALM 0 0 0 0 1009.7 1009.5 6.4
17/03:00am 10.9 11.2 10.9 100 0.0 CALM 0 0 0 0 1009.7 1009.5 6.4
17/02:30am 10.7 9.8 10.7 100 0.0 ENE 6 7 3 4 1009.7 1009.5 6.4
17/02:00am 10.8 9.7 10.8 100 0.0 ENE 7 9 4 5 1010.0 1009.8 6.4
17/01:30am 10.6 10.8 10.6 100 0.0 CALM 0 0 0 0 1010.6 1010.4 6.2
17/01:00am 10.4 10.2 10.4 100 0.0 E 2 9 1 5 1010.5 1010.3 6.2
17/12:30am 10.4 10.6 10.4 100 0.0 CALM 0 6 0 3 1010.9 1010.7 6.2
17/12:00am 10.1 8.8 10.0 99 0.1 SW 7 9 4 5 1010.7 1010.5 6.2
 
Date/Time
EDT
Temp
°C
App
Temp
°C
Dew
Point
°C
Rel
Hum
%
Delta-T
°C
Wind Press
QNH
hPa
Press
MSL
hPa
Rain since
9am
mm
Dir  Spd
km/h
Gust
km/h
Spd
kts
Gust
kts
16/11:30pm 10.9 11.1 10.7 99 0.1 CALM 0 0 0 0 1010.5 1010.3 6.2
16/11:00pm 11.0 11.3 10.8 99 0.1 CALM 0 0 0 0 1010.7 1010.5 6.2
16/10:30pm 11.8 12.3 11.6 99 0.1 CALM 0 0 0 0 1010.8 1010.6 6.2
16/10:13pm 11.4 11.8 11.1 98 0.2 CALM 0 0 0 0 1010.9 1010.7 6.2
16/10:00pm 12.3 13.0 12.1 99 0.1 CALM 0 0 0 0 1010.8 1010.6 6.2
16/09:38pm 12.6 13.3 12.3 98 0.2 CALM 0 0 0 0 1010.8 1010.6 6.2
16/09:30pm 13.0 13.8 12.7 98 0.2 CALM 0 0 0 0 1010.8 1010.6 6.2
16/09:00pm 13.4 14.3 12.9 97 0.3 CALM 0 0 0 0 1010.9 1010.7 6.2
16/08:30pm 13.6 14.5 12.8 95 0.4 CALM 0 0 0 0 1010.9 1010.7 6.2
16/08:00pm 13.9 13.7 13.1 95 0.4 NNE 6 7 3 4 1010.3 1010.1 6.2
16/07:30pm 13.7 13.5 13.1 96 0.3 S 6 13 3 7 1010.6 1010.4 5.4
16/07:00pm 14.1 14.1 13.5 96 0.3 SE 6 7 3 4 1009.4 1009.2 5.4
16/06:30pm 14.1 13.8 13.3 95 0.4 ENE 7 9 4 5 1009.6 1009.4 5.4
16/06:00pm 13.9 13.2 13.1 95 0.4 ESE 9 11 5 6 1009.8 1009.6 5.4
16/05:30pm 14.2 13.4 12.9 92 0.7 NE 9 15 5 8 1010.7 1010.5 4.2
16/05:00pm 14.2 13.8 12.9 92 0.7 ESE 7 11 4 6 1010.7 1010.5 3.8
16/04:30pm 14.6 15.2 13.0 90 0.9 NNE 2 6 1 3 1010.9 1010.7 3.0
16/04:29pm 14.5 15.0 12.7 89 1.0 NNE 2 7 1 4 1010.9 1010.7 3.0
16/04:01pm 14.5 14.5 12.5 88 1.1 WSW 4 9 2 5 1010.9 1010.7 2.0
16/04:00pm 14.5 14.6 12.7 89 1.0 WSW 4 9 2 5 1011.0 1010.8 1.8
16/03:30pm 14.7 14.2 12.7 88 1.1 ESE 7 13 4 7 1009.9 1009.7 1.2
16/03:00pm 14.9 10.8 11.5 80 1.8 SW 24 32 13 17 1010.8 1010.6 0.8
16/02:30pm 17.8 14.1 10.2 61 4.1 SW 20 32 11 17 1010.4 1010.2 0.0
16/02:00pm 19.8 18.5 9.1 50 5.7 W 6 9 3 5 1009.1 1009.0 0.0
16/01:30pm 19.3 15.3 8.3 49 5.7 W 19 28 10 15 1010.7 1010.5 0.0
16/01:00pm 20.5 18.8 10.0 51 5.7 S 9 15 5 8 1010.2 1010.0 0.0
16/12:30pm 20.7 18.9 9.3 48 6.1 ESE 9 13 5 7 1009.6 1009.4 0.0
16/12:00pm 21.2 20.0 11.5 54 5.4 SE 9 13 5 7 1010.1 1009.9 0.0
16/11:30am 19.9 18.6 9.8 52 5.4 NE 7 11 4 6 1010.6 1010.4 0.0
16/11:00am 19.1 18.9 10.6 58 4.6 SE 2 7 1 4 1011.4 1011.2 0.0
16/10:30am 17.1 16.0 10.7 66 3.4 SE 7 9 4 5 1011.0 1010.8 0.0
16/10:00am 17.6 17.6 11.2 66 3.5 ESE 2 7 1 4 1011.2 1011.0 0.0
16/09:30am 16.6 15.6 10.9 69 3.1 ESE 7 9 4 5 1011.2 1011.0 0.0
16/09:00am 15.8 14.7 10.8 72 2.7 SSE 7 11 4 6 1011.5 1011.3 0.0
16/08:30am 15.0 15.1 10.2 73 2.5 CALM 0 0 0 0 1011.5 1011.3 0.0
16/08:00am 14.6 14.6 9.8 73 2.5 CALM 0 0 0 0 1011.1 1010.9 0.0
16/07:30am 14.2 13.4 11.0 81 1.7 NE 6 7 3 4 1011.3 1011.1 0.0
16/07:00am 13.7 13.9 10.5 81 1.7 CALM 0 0 0 0 1011.3 1011.1 0.0
16/06:30am 13.3 13.3 9.9 80 1.8 CALM 0 6 0 3 1011.3 1011.1 0.0
16/06:00am 13.1 11.9 9.4 78 1.9 SW 6 9 3 5 1010.7 1010.5 0.0

Other formats

Comma delimited format used in spreadsheet applications
http://www.bom.gov.au/fwo/IDV60801/IDV60801.95896.axf

JavaScript Object Notation format (JSON) in row-major order
http://www.bom.gov.au/fwo/IDV60801/IDV60801.95896.json

Data quality

Most of these data are generated automatically and are frequently updated. Quality checks on data are not normally performed. It is possible for incorrect values to appear. Refer to information at About Latest Weather Observations and please check the disclaimer before using these data.